Townsend, MT (59644)

6:33 PM MST on February 09, 2016 (GMT -0700)
Townsend Seeds | | Change Station
CLOSE
Current Station
Personal Weather Station
Location: Townsend, MT
Elevation: 3825 ft
Nearby Weather Stations

Elev 3825 ft 46.32 °N, 111.52 °W | Updated 7 seconds ago

Clear
Clear
37.4 °F
Feels Like 35 °F
N
3.1
Wind Variable Wind from North
Gusts 3.1 mph

Today
High -- | Low -- °F
--% Chance of Precip.
Yesterday
High -- | Low -- °F
Precip. -- in
Pressure 30.39 in
Visibility 10.0 miles
Clouds Clear
Windchill 35 °F
Dew Point 23 °F
Humidity 56%
Rainfall 0.00 in
Snow Depth Not available.
7:38 AM 5:42 PM
Waxing Crescent, 3% visible
METAR KHLN 100053Z 25006KT 10SM CLR 05/M01 A3027 RMK AO2 SLP290 T00501006
Pressure 30.39 in
Visibility 10.0 miles
Clouds Clear
Windchill 35 °F
Dew Point 23 °F
Humidity 56%
Rainfall 0.00 in
Snow Depth Not available.
7:38 AM 5:42 PM
Waxing Crescent, 3% visible
METAR KHLN 100053Z 25006KT 10SM CLR 05/M01 A3027 RMK AO2 SLP290 T00501006

10-Day Weather Forecast

Almanac

Astronomy

Feb. 09, 2016 Rise Set
Actual Time
Civil Twilight
Nautical Twilight
Astronomical Twilight
Moon
Length of Visible Light
Length of Day
Tomorrow will be .
, % of the Moon is Illuminated

Today's Extremes

State Highs State Lows

Community

WunderPhotos

Upload Photos

1,891,760 photos uploaded!

WunderBlog® & News

Nearby

Air Quality

  Air Quality AQ Index Pollutant
Not available.

Snow Depth

Station Depth Elevation

Earthquake Activity

City Distance Mag. Time & Date
Minimum magnitude displayed is 2.5.

Coastal Water Temperatures

Place Temperature

Stations

Nearby Weather Stations

Station Location Temp. Windchill Dew Point Humidity Wind Precip. Elev Updated Type
                   

Watches & Warnings

There are currently no watches in effect.